createdAt,value
2023-05-03T00:00:52.227Z,1094.0834
2023-05-03T00:01:56.872Z,1094.9166
2023-05-03T00:03:01.456Z,1095.5834
2023-05-03T00:04:06.072Z,1099.7500
2023-05-03T00:05:10.706Z,1090.7500
2023-05-03T00:06:15.389Z,1088.4166
2023-05-03T00:07:19.986Z,1091.5834
2023-05-03T00:08:24.586Z,1095.3334
2023-05-03T00:09:29.240Z,1100.6666
2023-05-03T00:10:33.881Z,1102.8334
2023-05-03T00:11:38.491Z,1095.8334
2023-05-03T00:12:43.105Z,1090.5000
2023-05-03T00:13:47.696Z,1089.9166
2023-05-03T00:14:52.296Z,1092.6666
2023-05-03T00:15:56.889Z,1095.5834
2023-05-03T00:17:01.664Z,1102.5834
2023-05-03T00:18:06.308Z,1099.0834
2023-05-03T00:19:24.232Z,1094.4166
2023-05-03T00:20:16.182Z,1094.3636
2023-05-03T00:21:20.807Z,1094.5834
2023-05-03T00:22:25.438Z,1099.0834
2023-05-03T00:23:30.092Z,1105.5000
2023-05-03T00:24:34.713Z,1096.2500
2023-05-03T00:25:35.805Z,1087.9091
2023-05-03T00:26:40.433Z,1090.4166
2023-05-03T00:27:45.419Z,1096.4166
2023-05-03T00:28:50.036Z,1100.4166
2023-05-03T00:29:54.913Z,1105.2500
2023-05-03T00:30:59.529Z,1102.4166
2023-05-03T00:32:04.164Z,1094.1666
2023-05-03T00:33:08.803Z,1090.0000
2023-05-03T00:34:13.497Z,1092.0834
2023-05-03T00:35:18.118Z,1094.2500
2023-05-03T00:36:22.749Z,1100.5834
2023-05-03T00:37:27.352Z,1094.4166
2023-05-03T00:38:31.985Z,1088.5834
2023-05-03T00:39:36.611Z,1090.2500
2023-05-03T00:40:41.248Z,1085.5000
2023-05-03T00:41:45.888Z,1088.8334
2023-05-03T00:42:50.471Z,1101.5000
2023-05-03T00:43:55.084Z,1096.0834
2023-05-03T00:44:59.701Z,1086.2500
2023-05-03T00:46:15.171Z,1082.5000
2023-05-03T00:47:09.492Z,1082.2727
2023-05-03T00:48:14.384Z,1084.5000
2023-05-03T00:49:19.026Z,1090.2500
2023-05-03T00:50:23.651Z,1089.6666
2023-05-03T00:51:28.283Z,1081.7500
2023-05-03T00:52:32.897Z,1076.4166
2023-05-03T00:53:37.528Z,1074.8334
2023-05-03T00:54:42.183Z,1076.3334
2023-05-03T00:55:46.769Z,1082.5834
2023-05-03T00:56:52.526Z,1084.0000
2023-05-03T00:57:52.454Z,1072.1818
2023-05-03T00:58:57.048Z,1070.5000
2023-05-03T01:00:02.024Z,1070.0000
2023-05-03T01:01:06.729Z,1069.7500
2023-05-03T01:02:11.323Z,1076.5834
2023-05-03T01:03:16.064Z,1076.5834
2023-05-03T01:04:20.707Z,1067.0834
2023-05-03T01:05:25.308Z,1061.0834
2023-05-03T01:06:29.944Z,1061.5834
2023-05-03T01:07:34.543Z,1059.2500
2023-05-03T01:08:39.162Z,1066.0834
2023-05-03T01:09:43.774Z,1068.6666
2023-05-03T01:10:48.409Z,1065.8334
2023-05-03T01:11:53.027Z,1069.4166
2023-05-03T01:12:57.712Z,1069.8334
2023-05-03T01:14:02.338Z,1071.0834
2023-05-03T01:15:06.954Z,1075.5000
2023-05-03T01:16:11.609Z,1069.9166
2023-05-03T01:17:16.274Z,1063.8334
2023-05-03T01:18:20.903Z,1064.9166
2023-05-03T01:19:25.509Z,1065.7500
2023-05-03T01:20:30.110Z,1067.7500
2023-05-03T01:21:34.719Z,1075.0834
2023-05-03T01:22:39.331Z,1068.9166
2023-05-03T01:23:43.937Z,1058.4166
2023-05-03T01:24:48.547Z,1058.3334
2023-05-03T01:25:53.197Z,1061.0000
2023-05-03T01:26:57.820Z,1061.5000
2023-05-03T01:28:02.456Z,1066.4166
2023-05-03T01:29:07.068Z,1065.0000
2023-05-03T01:30:11.673Z,1060.8334
2023-05-03T01:31:16.338Z,1061.0000
2023-05-03T01:32:20.982Z,1062.8334
2023-05-03T01:33:25.596Z,1060.6666
2023-05-03T01:34:30.200Z,1064.9166
2023-05-03T01:35:34.819Z,1063.1666
2023-05-03T01:36:39.431Z,1057.0000
2023-05-03T01:37:44.277Z,1055.2500
2023-05-03T01:38:48.906Z,1057.0834
2023-05-03T01:39:53.528Z,1059.0834
2023-05-03T01:40:58.152Z,1069.4166
2023-05-03T01:42:02.781Z,1071.7500
2023-05-03T01:43:07.375Z,1063.5000
2023-05-03T01:44:11.980Z,1056.2500
2023-05-03T01:45:16.855Z,1053.0834
2023-05-03T01:46:21.582Z,1051.4166
2023-05-03T01:47:26.202Z,1055.5834
2023-05-03T01:48:30.809Z,1061.1666
2023-05-03T01:49:35.428Z,1054.1666
2023-05-03T01:50:40.060Z,1051.3334
2023-05-03T01:51:44.680Z,1051.0834
2023-05-03T01:52:49.287Z,1051.6666
2023-05-03T01:53:53.887Z,1057.3334
2023-05-03T01:54:58.522Z,1061.9166
2023-05-03T01:56:03.143Z,1052.5834
2023-05-03T01:57:07.784Z,1047.0000
2023-05-03T01:58:12.511Z,1046.9166
2023-05-03T01:59:17.135Z,1051.4166
2023-05-03T02:00:21.755Z,1055.8334
2023-05-03T02:01:26.415Z,1061.0000
2023-05-03T02:02:31.005Z,1058.0000
2023-05-03T02:03:35.606Z,1055.5834
2023-05-03T02:04:40.254Z,1052.6666
2023-05-03T02:05:44.883Z,1053.0834
2023-05-03T02:06:49.586Z,1059.3334
2023-05-03T02:07:54.278Z,1070.6666
2023-05-03T02:08:58.856Z,1063.3334
2023-05-03T02:10:03.627Z,1056.5834
2023-05-03T02:11:05.314Z,1053.7000
2023-05-03T02:12:09.904Z,1050.2500
2023-05-03T02:13:14.533Z,1050.7500
2023-05-03T02:14:19.158Z,1056.0834
2023-05-03T02:15:23.796Z,1051.8334
2023-05-03T02:16:28.452Z,1046.3334
2023-05-03T02:17:33.085Z,1045.4166
2023-05-03T02:18:37.680Z,1046.3334
2023-05-03T02:19:42.294Z,1047.2500
2023-05-03T02:20:46.923Z,1051.2500
2023-05-03T02:21:51.554Z,1044.5000
2023-05-03T02:22:56.166Z,1038.1666
2023-05-03T02:24:00.816Z,1041.0000
2023-05-03T02:25:05.405Z,1043.6666
2023-05-03T02:26:09.991Z,1045.0834
2023-05-03T02:27:14.618Z,1055.3334
2023-05-03T02:28:19.235Z,1053.3334
2023-05-03T02:29:23.860Z,1043.2500
2023-05-03T02:30:28.469Z,1039.5000
2023-05-03T02:31:33.153Z,1040.7500
2023-05-03T02:32:37.832Z,1043.7500
2023-05-03T02:33:42.430Z,1048.9166
2023-05-03T02:34:47.035Z,1041.9166
2023-05-03T02:35:51.641Z,1038.2500
2023-05-03T02:36:56.247Z,1039.8334
2023-05-03T02:38:00.861Z,1040.5834
2023-05-03T02:39:05.457Z,1041.9166
2023-05-03T02:40:10.310Z,1054.0834
2023-05-03T02:41:14.911Z,1052.0000
2023-05-03T02:42:19.516Z,1040.0834
2023-05-03T02:43:24.162Z,1039.2500
2023-05-03T02:44:28.765Z,1039.7500
2023-05-03T02:45:33.397Z,1039.4166
2023-05-03T02:46:38.079Z,1044.5834
2023-05-03T02:47:42.714Z,1045.9166
2023-05-03T02:48:47.323Z,1039.1666
2023-05-03T02:49:51.941Z,1040.7500
2023-05-03T02:50:56.555Z,1039.0834
2023-05-03T02:52:01.162Z,1039.5834
2023-05-03T02:53:05.777Z,1046.9166
2023-05-03T02:54:10.380Z,1039.4166
2023-05-03T02:55:14.989Z,1026.5000
2023-05-03T02:56:19.592Z,1029.0000
2023-05-03T02:57:24.227Z,1031.3334
2023-05-03T02:58:28.870Z,1034.4166
2023-05-03T02:59:33.494Z,1041.6666
2023-05-03T03:00:38.091Z,1046.2500
2023-05-03T03:01:42.746Z,1029.6666
2023-05-03T03:02:47.457Z,1022.9167
2023-05-03T03:03:52.148Z,1027.7500
2023-05-03T03:04:56.852Z,1031.9166
2023-05-03T03:06:01.497Z,1035.0834
2023-05-03T03:07:06.111Z,1039.6666
2023-05-03T03:08:10.729Z,1034.5000
2023-05-03T03:09:15.336Z,1030.5834
2023-05-03T03:10:19.954Z,1030.0000
2023-05-03T03:11:24.559Z,1034.0834
2023-05-03T03:12:29.192Z,1036.3334
2023-05-03T03:13:33.799Z,1037.4166
2023-05-03T03:14:38.467Z,1034.5000
2023-05-03T03:15:43.133Z,1029.5834
2023-05-03T03:16:47.770Z,1029.7500
2023-05-03T03:17:52.433Z,1029.5834
2023-05-03T03:18:57.067Z,1031.9166
2023-05-03T03:20:01.754Z,1036.3334
2023-05-03T03:21:06.476Z,1029.1666
2023-05-03T03:22:11.085Z,1023.7500
2023-05-03T03:23:15.689Z,1020.5000
2023-05-03T03:24:20.288Z,1018.9167
2023-05-03T03:25:24.917Z,1022.4167
2023-05-03T03:26:29.536Z,1028.2500
2023-05-03T03:27:34.179Z,1024.0834
2023-05-03T03:28:38.821Z,1018.1667
2023-05-03T03:29:43.456Z,1016.6667
2023-05-03T03:30:48.062Z,1017.6667
2023-05-03T03:31:52.691Z,1017.5833
2023-05-03T03:32:57.378Z,1023.0000
2023-05-03T03:34:01.974Z,1022.6667
2023-05-03T03:35:06.630Z,1019.5000
2023-05-03T03:36:11.256Z,1022.7500
2023-05-03T03:37:15.868Z,1024.2500
2023-05-03T03:38:20.465Z,1023.9167
2023-05-03T03:39:25.082Z,1028.5834
2023-05-03T03:40:29.697Z,1023.5000
2023-05-03T03:41:34.288Z,1020.0000
2023-05-03T03:42:38.894Z,1019.5000
2023-05-03T03:43:43.514Z,1016.1667
2023-05-03T03:44:48.129Z,1017.1667
2023-05-03T03:45:52.773Z,1024.2500
2023-05-03T03:46:57.417Z,1020.5000
2023-05-03T03:48:02.065Z,1016.1667
2023-05-03T03:49:06.682Z,1017.6667
2023-05-03T03:50:11.325Z,1019.3333
2023-05-03T03:51:15.953Z,1027.5000
2023-05-03T03:52:20.596Z,1032.5834
2023-05-03T03:53:25.207Z,1025.1666
2023-05-03T03:54:29.849Z,1019.1667
2023-05-03T03:55:34.481Z,1015.0833
2023-05-03T03:56:39.098Z,1012.9167
2023-05-03T03:57:43.717Z,1015.5000
2023-05-03T03:58:48.337Z,1022.4167
2023-05-03T03:59:52.942Z,1015.9167
2023-05-03T04:00:57.553Z,1008.5000
2023-05-03T04:02:02.229Z,1009.2500
2023-05-03T04:03:08.022Z,1011.5000
2023-05-03T04:04:07.505Z,1015.4545
2023-05-03T04:05:12.124Z,1024.8334
2023-05-03T04:06:16.801Z,1020.5000
2023-05-03T04:07:21.385Z,1015.3333
2023-05-03T04:08:25.985Z,1013.4167
2023-05-03T04:09:30.601Z,1015.9167
2023-05-03T04:10:35.211Z,1018.8333
2023-05-03T04:11:39.817Z,1025.5000
2023-05-03T04:12:40.675Z,1022.7273
2023-05-03T04:13:45.286Z,1012.9167
2023-05-03T04:14:49.885Z,1013.5000
2023-05-03T04:15:54.506Z,1015.1667
2023-05-03T04:16:59.161Z,1016.9167
2023-05-03T04:18:03.801Z,1023.3333
2023-05-03T04:19:08.433Z,1020.3333
2023-05-03T04:20:13.073Z,1009.7500
2023-05-03T04:21:17.720Z,1009.1667
2023-05-03T04:22:22.335Z,1012.4167
2023-05-03T04:23:26.961Z,1014.1667
2023-05-03T04:24:31.575Z,1018.1667
2023-05-03T04:25:36.168Z,1017.5833
2023-05-03T04:26:40.766Z,1014.2500
2023-05-03T04:27:45.395Z,1014.5833
2023-05-03T04:28:49.991Z,1017.4167
2023-05-03T04:29:54.633Z,1016.1667
2023-05-03T04:30:59.268Z,1016.0833
2023-05-03T04:32:03.893Z,1012.1667
2023-05-03T04:33:08.540Z,1007.8333
2023-05-03T04:34:13.197Z,1011.3333
2023-05-03T04:35:17.794Z,1012.4167
2023-05-03T04:36:22.415Z,1012.5833
2023-05-03T04:37:27.025Z,1019.0833
2023-05-03T04:38:31.638Z,1018.9167
2023-05-03T04:39:36.260Z,1010.7500
2023-05-03T04:40:40.874Z,1012.0833
2023-05-03T04:41:45.487Z,1006.1667
2023-05-03T04:42:50.080Z,1004.0833
2023-05-03T04:43:54.700Z,1010.0833
2023-05-03T04:44:59.657Z,1009.5000
2023-05-03T04:46:04.293Z,1002.7500
2023-05-03T04:47:08.957Z,997.4167
2023-05-03T04:48:13.812Z,999.0833
2023-05-03T04:49:18.474Z,1002.4167
2023-05-03T04:50:23.078Z,1009.1667
2023-05-03T04:51:27.703Z,1008.9167
2023-05-03T04:52:32.342Z,997.8333
2023-05-03T04:53:36.950Z,993.0000
2023-05-03T04:54:41.565Z,995.0833
2023-05-03T04:55:46.169Z,997.1667
2023-05-03T04:56:50.795Z,1005.9167
2023-05-03T04:57:55.406Z,1012.6667
2023-05-03T04:59:00.039Z,1001.8333
2023-05-03T05:00:04.801Z,998.2500
2023-05-03T05:01:09.732Z,1005.0833
2023-05-03T05:02:14.728Z,1007.0833
2023-05-03T05:03:19.490Z,1009.1667
2023-05-03T05:04:24.137Z,1014.8333
2023-05-03T05:05:28.779Z,1004.9167
2023-05-03T05:06:33.461Z,1000.2500
2023-05-03T05:07:38.095Z,1005.0833
2023-05-03T05:08:42.726Z,1009.8333
2023-05-03T05:09:47.374Z,1010.5000
2023-05-03T05:10:52.054Z,1013.9167
2023-05-03T05:11:57.399Z,1007.8333
2023-05-03T05:12:56.730Z,999.8182
2023-05-03T05:14:01.403Z,997.6667
2023-05-03T05:15:06.041Z,997.5833
2023-05-03T05:16:10.705Z,996.0000
2023-05-03T05:17:15.384Z,1003.3333
2023-05-03T05:18:20.188Z,997.8333
2023-05-03T05:19:24.854Z,990.0833
2023-05-03T05:20:29.469Z,991.0000
2023-05-03T05:21:34.121Z,993.3333
2023-05-03T05:22:38.782Z,993.8333
2023-05-03T05:23:43.415Z,1000.5000
2023-05-03T05:24:48.068Z,998.0000
2023-05-03T05:25:52.713Z,985.0833
2023-05-03T05:26:57.369Z,984.2500
2023-05-03T05:28:02.026Z,984.5833
2023-05-03T05:29:06.684Z,985.6667
2023-05-03T05:30:11.364Z,991.0833
2023-05-03T05:31:15.997Z,990.8333
2023-05-03T05:32:20.857Z,980.0833
2023-05-03T05:33:25.539Z,980.4167
2023-05-03T05:34:36.336Z,979.4167
2023-05-03T05:35:35.362Z,980.0909
2023-05-03T05:36:40.051Z,987.4167
2023-05-03T05:37:44.658Z,988.2500
2023-05-03T05:38:49.317Z,985.6667
2023-05-03T05:39:53.982Z,985.0833
2023-05-03T05:40:58.630Z,983.8333
2023-05-03T05:42:03.291Z,986.4167
2023-05-03T05:43:07.948Z,991.1667
2023-05-03T05:44:12.604Z,989.6667
2023-05-03T05:45:17.258Z,983.2500
2023-05-03T05:46:21.947Z,982.7500
2023-05-03T05:47:26.749Z,982.1667
2023-05-03T05:48:31.384Z,982.2500
2023-05-03T05:49:36.028Z,987.0000
2023-05-03T05:50:40.686Z,985.2500
2023-05-03T05:51:45.329Z,984.7500
2023-05-03T05:52:49.992Z,983.3333
2023-05-03T05:53:54.650Z,979.6667
2023-05-03T05:54:59.548Z,978.9167
2023-05-03T05:56:04.202Z,981.5833
2023-05-03T05:57:08.843Z,978.5000
2023-05-03T05:58:13.493Z,969.7500
2023-05-03T05:59:18.117Z,970.0833
2023-05-03T06:00:22.753Z,972.1667
2023-05-03T06:01:27.372Z,974.5000
2023-05-03T06:02:32.150Z,984.2500
2023-05-03T06:03:36.854Z,986.2500
2023-05-03T06:04:41.516Z,978.5000
2023-05-03T06:05:46.352Z,977.5833
2023-05-03T06:06:51.134Z,978.2500
2023-05-03T06:07:55.824Z,975.7500
2023-05-03T06:09:02.913Z,977.7500
2023-05-03T06:10:05.817Z,979.0909
2023-05-03T06:11:10.577Z,968.2500
2023-05-03T06:12:15.234Z,970.0000
2023-05-03T06:13:19.902Z,972.8333
2023-05-03T06:14:24.532Z,972.8333
2023-05-03T06:15:29.493Z,978.0833
2023-05-03T06:16:34.236Z,984.2500
2023-05-03T06:17:38.930Z,978.5000
2023-05-03T06:18:43.554Z,974.3333
2023-05-03T06:19:48.181Z,973.5833
2023-05-03T06:20:52.830Z,973.5833
2023-05-03T06:21:57.484Z,973.0000
2023-05-03T06:23:02.155Z,977.0833
2023-05-03T06:24:06.773Z,972.3333
2023-05-03T06:25:11.441Z,968.3333
2023-05-03T06:26:16.070Z,968.5000
2023-05-03T06:27:20.723Z,968.7500
2023-05-03T06:28:25.382Z,970.3333
2023-05-03T06:29:30.029Z,977.0000
2023-05-03T06:30:34.705Z,967.1667
2023-05-03T06:31:39.297Z,962.4167
2023-05-03T06:32:44.193Z,961.4167
2023-05-03T06:33:48.799Z,963.9167
2023-05-03T06:34:53.655Z,969.6667
2023-05-03T06:35:58.309Z,974.2500
2023-05-03T06:37:02.960Z,970.5833
2023-05-03T06:38:07.589Z,967.9167
2023-05-03T06:39:12.221Z,969.6667
2023-05-03T06:40:17.101Z,969.0833
2023-05-03T06:41:21.733Z,968.9167
2023-05-03T06:42:27.066Z,980.0833
2023-05-03T06:43:31.682Z,976.5000
2023-05-03T06:44:36.320Z,969.0833
2023-05-03T06:45:41.213Z,970.4167
2023-05-03T06:46:45.896Z,970.3333
2023-05-03T06:47:50.581Z,970.2500
2023-05-03T06:48:55.315Z,975.0833
2023-05-03T06:50:00.068Z,972.5833
2023-05-03T06:51:04.810Z,968.5833
2023-05-03T06:52:11.494Z,966.0833
2023-05-03T06:53:11.286Z,962.9091
2023-05-03T06:54:15.923Z,965.3333
2023-05-03T06:55:20.562Z,973.0000
2023-05-03T06:56:25.197Z,973.6667
2023-05-03T06:57:30.066Z,970.4167
2023-05-03T06:58:34.697Z,970.0000
2023-05-03T06:59:39.340Z,970.0000
2023-05-03T07:00:44.070Z,971.6667
2023-05-03T07:01:48.813Z,977.2500
2023-05-03T07:02:53.541Z,968.3333
2023-05-03T07:03:58.217Z,960.5000
2023-05-03T07:05:02.885Z,962.3333
2023-05-03T07:06:07.638Z,963.0000
2023-05-03T07:07:12.406Z,965.9167
2023-05-03T07:08:17.015Z,973.2500
2023-05-03T07:09:28.610Z,969.0000
2023-05-03T07:10:27.025Z,963.2727
2023-05-03T07:11:26.936Z,964.3636
2023-05-03T07:12:27.219Z,962.6364
2023-05-03T07:13:31.846Z,961.1667
2023-05-03T07:14:36.507Z,965.8333
2023-05-03T07:15:41.164Z,964.7500
2023-05-03T07:16:45.881Z,960.0833
2023-05-03T07:17:50.541Z,958.8333
2023-05-03T07:18:55.152Z,957.3333
2023-05-03T07:19:59.789Z,959.3333
2023-05-03T07:21:04.481Z,967.1667
2023-05-03T07:22:09.088Z,968.4167
2023-05-03T07:23:13.762Z,960.7500
2023-05-03T07:24:18.389Z,960.1667
2023-05-03T07:25:23.056Z,962.0000
2023-05-03T07:26:27.721Z,964.3333
2023-05-03T07:27:32.340Z,967.5000
2023-05-03T07:28:36.970Z,967.5833
2023-05-03T07:29:41.620Z,953.2500
2023-05-03T07:30:46.590Z,949.3333
2023-05-03T07:31:53.427Z,951.2500
2023-05-03T07:32:52.925Z,953.5455
2023-05-03T07:33:57.613Z,957.2500
2023-05-03T07:35:02.257Z,958.6667
2023-05-03T07:36:06.890Z,952.5833
2023-05-03T07:37:11.541Z,955.4167
2023-05-03T07:38:16.216Z,954.7500
2023-05-03T07:39:20.864Z,955.7500
2023-05-03T07:40:25.577Z,958.6667
2023-05-03T07:41:30.222Z,956.0833
2023-05-03T07:42:35.116Z,947.5000
2023-05-03T07:43:39.760Z,946.0833
2023-05-03T07:44:44.382Z,947.3333
2023-05-03T07:45:49.040Z,952.0833
2023-05-03T07:46:53.675Z,963.0000
2023-05-03T07:47:58.626Z,961.3333
2023-05-03T07:49:03.293Z,953.3333
2023-05-03T07:50:07.955Z,954.0000
2023-05-03T07:51:12.633Z,954.0833
2023-05-03T07:52:17.312Z,956.2500
2023-05-03T07:53:21.954Z,960.8333
2023-05-03T07:54:26.615Z,959.8333
2023-05-03T07:55:31.249Z,950.3333
2023-05-03T07:56:35.877Z,948.5000
2023-05-03T07:57:40.537Z,950.6667
2023-05-03T07:58:48.573Z,952.5833
2023-05-03T07:59:50.447Z,957.6364
2023-05-03T08:00:55.099Z,959.5833
2023-05-03T08:02:01.708Z,951.0000
2023-05-03T08:03:01.391Z,947.1818
2023-05-03T08:04:06.381Z,948.2500
2023-05-03T08:05:11.454Z,948.3333
2023-05-03T08:06:16.164Z,954.0000
2023-05-03T08:07:20.780Z,954.4167
2023-05-03T08:08:25.446Z,945.8333
2023-05-03T08:09:30.107Z,941.2500
2023-05-03T08:10:34.773Z,940.9167
2023-05-03T08:11:40.963Z,941.6667
2023-05-03T08:12:41.750Z,948.1818
2023-05-03T08:13:46.418Z,952.5833
2023-05-03T08:14:51.085Z,948.7500
2023-05-03T08:15:55.778Z,948.0833
2023-05-03T08:17:00.430Z,950.3333
2023-05-03T08:18:05.093Z,951.5833
2023-05-03T08:19:09.736Z,951.3333
2023-05-03T08:20:14.400Z,952.8333
2023-05-03T08:21:19.007Z,947.0833
2023-05-03T08:22:23.671Z,943.3333
2023-05-03T08:23:28.330Z,944.9167
2023-05-03T08:24:32.966Z,946.5000
2023-05-03T08:25:37.611Z,953.4167
2023-05-03T08:26:42.250Z,954.5000
2023-05-03T08:27:46.934Z,948.0833
2023-05-03T08:28:51.582Z,945.1667
2023-05-03T08:29:56.228Z,945.0000
2023-05-03T08:31:00.871Z,944.5833
2023-05-03T08:32:05.492Z,957.8333
2023-05-03T08:33:10.207Z,956.6667
2023-05-03T08:34:14.917Z,947.3333
2023-05-03T08:35:15.177Z,948.9091
2023-05-03T08:36:19.849Z,950.4167
2023-05-03T08:37:24.513Z,950.1667
2023-05-03T08:38:29.180Z,953.5833
2023-05-03T08:39:33.796Z,954.9167
2023-05-03T08:40:38.447Z,940.7500
2023-05-03T08:41:43.090Z,933.8333
2023-05-03T08:42:47.752Z,935.5833
2023-05-03T08:43:52.401Z,935.0833
2023-05-03T08:44:57.060Z,939.3333
2023-05-03T08:46:01.747Z,950.0000
2023-05-03T08:47:06.511Z,945.5000
2023-05-03T08:48:11.297Z,940.2500
2023-05-03T08:49:15.936Z,942.1667
2023-05-03T08:50:21.209Z,894.4167
2023-05-03T08:51:25.856Z,855.7500
2023-05-03T08:52:30.737Z,853.0833
2023-05-03T08:53:35.404Z,849.0833
2023-05-03T08:54:40.065Z,848.4167
2023-05-03T08:55:44.728Z,848.0833
2023-05-03T08:56:49.398Z,844.9167
2023-05-03T08:57:54.084Z,845.5833
2023-05-03T08:58:58.694Z,844.6667
2023-05-03T09:00:03.608Z,843.3333
2023-05-03T09:01:08.417Z,844.5000
2023-05-03T09:02:13.092Z,845.6667
2023-05-03T09:03:17.793Z,846.1667
2023-05-03T09:04:22.494Z,846.9167
2023-05-03T09:05:27.114Z,850.5000
2023-05-03T09:06:31.788Z,848.6667
2023-05-03T09:07:36.392Z,844.2500
2023-05-03T09:08:41.030Z,840.4167
2023-05-03T09:10:01.759Z,838.2500
2023-05-03T09:10:50.832Z,834.9091
2023-05-03T09:11:55.469Z,834.0833
2023-05-03T09:13:00.134Z,830.0833
2023-05-03T09:14:04.785Z,824.5833
2023-05-03T09:15:09.457Z,827.2500
2023-05-03T09:16:14.138Z,829.1667
2023-05-03T09:17:19.120Z,827.3333
2023-05-03T09:18:23.773Z,827.9167
2023-05-03T09:19:28.444Z,831.3333
2023-05-03T09:20:33.112Z,830.6667
2023-05-03T09:21:37.746Z,829.9167
2023-05-03T09:22:42.401Z,830.5833
2023-05-03T09:23:47.032Z,1084.1666
2023-05-03T09:24:51.678Z,1320.3334
2023-05-03T09:25:56.318Z,1298.2500
2023-05-03T09:27:00.945Z,1286.8334
2023-05-03T09:28:05.582Z,1274.1666
2023-05-03T09:29:10.219Z,1273.6666
2023-05-03T09:30:14.861Z,1278.3334
2023-05-03T09:31:19.517Z,1285.6666
2023-05-03T09:32:24.259Z,1294.0834
2023-05-03T09:33:28.886Z,1287.4166
2023-05-03T09:34:33.542Z,1282.1666
2023-05-03T09:35:38.269Z,1284.9166
2023-05-03T09:36:44.482Z,1286.7500
2023-05-03T09:37:43.774Z,1283.8182
2023-05-03T09:38:48.428Z,1217.8334
2023-05-03T09:39:53.086Z,864.9167
2023-05-03T09:40:57.746Z,849.5833
2023-05-03T09:42:02.417Z,848.6667
2023-05-03T09:43:07.062Z,848.1667
2023-05-03T09:44:11.714Z,845.4167
2023-05-03T09:45:16.370Z,846.7500
2023-05-03T09:46:21.092Z,848.8333
2023-05-03T09:47:25.840Z,847.7500
2023-05-03T09:48:30.568Z,851.0833
2023-05-03T09:49:35.244Z,848.2500
2023-05-03T09:50:39.927Z,844.9167
2023-05-03T09:51:44.839Z,844.5000
2023-05-03T09:52:49.493Z,842.2500
2023-05-03T09:53:54.149Z,846.6667
2023-05-03T09:54:58.825Z,1681.0834
2023-05-03T09:56:03.458Z,1733.8334
2023-05-03T09:57:08.101Z,1722.7500
2023-05-03T09:58:12.732Z,1709.8334
2023-05-03T09:59:17.382Z,1707.6666
2023-05-03T10:00:22.153Z,1707.3334
2023-05-03T10:01:26.781Z,1709.7500
2023-05-03T10:02:31.418Z,1714.5000
2023-05-03T10:03:36.042Z,1712.8334
2023-05-03T10:04:40.676Z,1710.8334
2023-05-03T10:05:45.352Z,1707.5834
2023-05-03T10:06:45.655Z,1704.7273
2023-05-03T10:07:50.264Z,1707.8334
2023-05-03T10:08:54.991Z,1712.0000
2023-05-03T10:09:59.853Z,1397.5834
2023-05-03T10:11:04.502Z,863.8333
2023-05-03T10:12:09.106Z,848.7500
2023-05-03T10:13:13.766Z,844.4167
2023-05-03T10:14:18.408Z,839.9167
2023-05-03T10:15:23.061Z,836.5000
2023-05-03T10:16:27.741Z,837.0000
2023-05-03T10:17:47.172Z,835.5833
2023-05-03T10:18:37.893Z,836.0909
2023-05-03T10:19:42.567Z,832.5000
2023-05-03T10:20:47.205Z,835.0000
2023-05-03T10:21:51.846Z,835.2500
2023-05-03T10:22:56.488Z,834.0000
2023-05-03T10:24:01.110Z,834.5000
2023-05-03T10:25:05.942Z,919.0000
2023-05-03T10:26:10.795Z,1201.7500
2023-05-03T10:27:15.450Z,2180.5000
2023-05-03T10:28:20.110Z,2186.0833
2023-05-03T10:29:24.789Z,2176.1667
2023-05-03T10:30:29.478Z,2163.0833
2023-05-03T10:31:34.173Z,2159.7500
2023-05-03T10:32:38.774Z,2158.4167
2023-05-03T10:33:43.455Z,2158.3333
2023-05-03T10:34:48.083Z,2159.1667
2023-05-03T10:35:52.776Z,2155.2500
2023-05-03T10:36:57.420Z,2154.8333
2023-05-03T10:38:02.034Z,2153.0000
2023-05-03T10:39:06.657Z,2148.3333
2023-05-03T10:40:11.334Z,2152.7500
2023-05-03T10:41:15.960Z,1030.9166
2023-05-03T10:42:20.601Z,846.7500
2023-05-03T10:43:25.232Z,840.1667
2023-05-03T10:44:29.877Z,836.8333
2023-05-03T10:45:34.527Z,836.8333
2023-05-03T10:46:39.239Z,834.2500
2023-05-03T10:47:43.913Z,827.9167
2023-05-03T10:48:48.550Z,824.9167
2023-05-03T10:49:53.180Z,822.7500
2023-05-03T10:50:57.878Z,821.5000
2023-05-03T10:52:02.522Z,820.9167
2023-05-03T10:53:07.180Z,821.9167
2023-05-03T10:54:11.826Z,820.8333
2023-05-03T10:55:16.488Z,820.3333
2023-05-03T10:56:21.189Z,2065.6667
2023-05-03T10:57:25.822Z,2582.3333
2023-05-03T10:58:30.439Z,2572.7500
2023-05-03T10:59:35.078Z,2546.5000
2023-05-03T11:00:39.711Z,2535.8333
2023-05-03T11:01:44.457Z,2538.0000
2023-05-03T11:02:49.123Z,2538.8333
2023-05-03T11:03:53.762Z,2542.2500
2023-05-03T11:04:58.494Z,2539.6667
2023-05-03T11:06:03.197Z,2525.2500
2023-05-03T11:07:07.910Z,2522.0000
2023-05-03T11:08:12.576Z,2523.1667
2023-05-03T11:09:17.223Z,2520.1667
2023-05-03T11:10:21.859Z,2526.8333
2023-05-03T11:11:26.491Z,1712.4166
2023-05-03T11:12:31.131Z,842.8333
2023-05-03T11:13:35.839Z,825.2500
2023-05-03T11:14:40.538Z,822.0000
2023-05-03T11:15:46.953Z,824.5000
2023-05-03T11:16:48.309Z,823.9091
2023-05-03T11:17:47.791Z,822.6364
2023-05-03T11:18:52.440Z,827.4167
2023-05-03T11:19:57.102Z,828.3333
2023-05-03T11:21:01.772Z,830.7500
2023-05-03T11:22:06.554Z,831.9167
2023-05-03T11:23:11.186Z,828.0000
2023-05-03T11:24:15.858Z,831.5833
2023-05-03T11:25:20.492Z,831.5000
2023-05-03T11:26:25.144Z,834.5000
2023-05-03T11:27:29.787Z,1068.6666
2023-05-03T11:28:34.536Z,2965.9167
2023-05-03T11:29:39.180Z,3044.1667
2023-05-03T11:30:43.840Z,3025.5833
2023-05-03T11:31:48.523Z,3010.0833
2023-05-03T11:32:53.185Z,3003.3333
2023-05-03T11:33:57.840Z,3002.8333
2023-05-03T11:35:02.728Z,3008.6667
2023-05-03T11:36:07.555Z,3010.5833
2023-05-03T11:37:12.228Z,3004.7500
2023-05-03T11:38:16.845Z,2996.1667
2023-05-03T11:39:21.500Z,2995.5000
2023-05-03T11:40:26.126Z,2995.5833
2023-05-03T11:41:30.764Z,2991.1667
2023-05-03T11:42:35.448Z,2998.6667
2023-05-03T11:43:40.083Z,2981.5000
2023-05-03T11:44:44.716Z,2960.5833
2023-05-03T11:45:49.395Z,2957.7500
2023-05-03T11:46:54.145Z,2958.5833
2023-05-03T11:47:58.868Z,2959.6667
2023-05-03T11:49:03.575Z,2962.5833
2023-05-03T11:50:08.253Z,2955.5833
2023-05-03T11:51:12.935Z,2940.5833
2023-05-03T11:52:17.572Z,2646.5000
2023-05-03T11:53:22.280Z,932.5833
2023-05-03T11:54:27.842Z,845.8333
2023-05-03T11:55:27.333Z,835.0909
2023-05-03T11:56:32.008Z,829.7500
2023-05-03T11:57:36.720Z,829.8333
2023-05-03T11:58:41.415Z,826.8333
2023-05-03T11:59:46.115Z,823.5833
2023-05-03T12:00:50.767Z,822.9167
2023-05-03T12:01:55.433Z,821.3333
2023-05-03T12:03:00.204Z,816.0833
2023-05-03T12:04:05.436Z,816.2500
2023-05-03T12:05:05.960Z,817.0000
2023-05-03T12:06:06.487Z,815.5455
2023-05-03T12:07:06.275Z,814.9091
2023-05-03T12:08:12.079Z,812.5000
2023-05-03T12:09:12.648Z,814.4545
2023-05-03T12:10:21.878Z,815.5000
2023-05-03T12:11:25.684Z,817.9091
2023-05-03T12:12:30.877Z,817.0909
2023-05-03T12:13:33.715Z,816.3636
2023-05-03T12:14:34.050Z,814.4545
2023-05-03T12:15:40.614Z,813.2500
2023-05-03T12:16:40.271Z,808.5455
2023-05-03T12:17:46.026Z,806.5833
2023-05-03T12:18:48.322Z,811.7273
2023-05-03T12:19:54.442Z,810.8333
2023-05-03T12:21:30.018Z,812.0000
2023-05-03T12:23:04.831Z,806.7273
2023-05-03T12:24:10.784Z,804.4167
2023-05-03T12:25:10.629Z,805.3636
2023-05-03T12:26:10.594Z,810.2727
2023-05-03T12:27:16.586Z,812.1667